Startpagina
METAR-TAF:

METAR-TAF

Vliegvelden :

Flughafen Bern-Belp

Bern, Zwitserland

breedte: 46-55N, lengte: 007-30E, hoogte: 505 m

Actueel weer

Dit bericht is 36 minuten geleden gemaakt, om 02:20 UTC
Wind 4 kt uit het oosten
Temperatuur -2°C
Vochtigheid 93%
Druk 1026 hPa
Zicht: 2500 m
Verspreide wolken op 200 ft
nevel

METAR: LSZB 240220Z AUTO 09004KT 2500 BR SCT002 M02/M03 Q1026

Tijdstip: 03:56 (02:56 UTC)

Verwachting

Dit bericht is 12 uur en het 31 minuten geleden gemaakt, om 14:25 UTC
Verwachting geldig van 23 om 15 UTC tot 23 om 24 UTC
Wind 3 kt uit variabele richting
Zicht: 4000 m
Geheel bewolkt op 700 ft
nevel
Wijzigt naar
van 23 om 18 UTC tot 23 om 21 UTC
Gebroken wolken op 400 ft

TAF: LSZB 231425Z 2315/2324 VRB03KT 4000 BR OVC007 BECMG 2318/2321 BKN004

Waarnemingen en weersverwachtingen van meer dan 4000 vliegvelden (METAR en TAF).

De beschikbare stations zijn de gele en rode punten op de kaart.

Ga met uw muis naar het station om de naam te zien.

Klik dan om waarnemingen en weersverwachtingen te zien.

kaart wijzigen: klik op de groene knoppen met een zwart kruis om in te zoomen, op de groene knop met een streepje om uit te zoomen of op de groene pijlen voor aangrenzende kaarten.


METAR-TAF: